Tigerville, South Carolina
Current Conditions -  °F | °C
As of 1:53 PM on Monday 20 Oct 2014 (Local Time) from KGMU Reporting Station
Broken Clouds Broken Clouds  
Wind Chill: 20°   Ceiling: 4000
Heat Index: 20°   Visibility: 10mi
Dew Point:   Wind: 13mph
Humidity: 49%   Direction: 220°SW
Pressure: 30.05"   Gusts: NA
Location:  35.07°N, 82.37°W
Report Text: KGMU 201753Z 22011KT 10SM BKN040 20/09 A3005 RMK AO2 SLP172 T02000089 10206 20083 58029
Loading
Personal Weather Stations






























Interactive Weather Map
Tropical Storm Tracking
New forecast layout! Learn more

10-Day Weather Forecast

Advertisements
Track Severe Weather on mobile